sensor_id;sensor_type;location;lat;lon;timestamp;temperature;humidity
16247;DHT22;8231;50.866;7.944;2024-03-06T00:00:04;5.30;99.90
16247;DHT22;8231;50.866;7.944;2024-03-06T00:02:34;5.40;99.90
16247;DHT22;8231;50.866;7.944;2024-03-06T00:05:02;5.30;99.90
16247;DHT22;8231;50.866;7.944;2024-03-06T00:07:31;5.30;99.90
16247;DHT22;8231;50.866;7.944;2024-03-06T00:10:00;5.30;99.90
16247;DHT22;8231;50.866;7.944;2024-03-06T00:12:28;5.30;99.90
16247;DHT22;8231;50.866;7.944;2024-03-06T00:14:56;5.30;99.90
16247;DHT22;8231;50.866;7.944;2024-03-06T00:17:26;5.30;99.90
16247;DHT22;8231;50.866;7.944;2024-03-06T00:19:54;5.30;99.90
16247;DHT22;8231;50.866;7.944;2024-03-06T00:22:23;5.30;99.90
16247;DHT22;8231;50.866;7.944;2024-03-06T00:24:51;5.20;99.90
16247;DHT22;8231;50.866;7.944;2024-03-06T00:27:20;5.20;99.90
16247;DHT22;8231;50.866;7.944;2024-03-06T00:30:03;5.20;99.90
16247;DHT22;8231;50.866;7.944;2024-03-06T00:32:31;5.20;99.90
16247;DHT22;8231;50.866;7.944;2024-03-06T00:34:59;5.20;99.90
16247;DHT22;8231;50.866;7.944;2024-03-06T00:37:27;5.10;99.90
16247;DHT22;8231;50.866;7.944;2024-03-06T00:39:55;5.30;99.90
16247;DHT22;8231;50.866;7.944;2024-03-06T00:42:23;5.10;99.90
16247;DHT22;8231;50.866;7.944;2024-03-06T00:44:51;5.10;99.90
16247;DHT22;8231;50.866;7.944;2024-03-06T00:47:21;5.10;99.90
16247;DHT22;8231;50.866;7.944;2024-03-06T00:49:49;5.10;99.90
16247;DHT22;8231;50.866;7.944;2024-03-06T00:52:17;5.10;99.90
16247;DHT22;8231;50.866;7.944;2024-03-06T00:54:46;5.20;99.90
16247;DHT22;8231;50.866;7.944;2024-03-06T00:57:14;5.20;99.90
16247;DHT22;8231;50.866;7.944;2024-03-06T00:59:43;5.20;99.90
16247;DHT22;8231;50.866;7.944;2024-03-06T01:02:11;5.10;99.90
16247;DHT22;8231;50.866;7.944;2024-03-06T01:04:41;5.10;99.90
16247;DHT22;8231;50.866;7.944;2024-03-06T01:07:09;5.10;99.90
16247;DHT22;8231;50.866;7.944;2024-03-06T01:09:37;5.10;99.90
16247;DHT22;8231;50.866;7.944;2024-03-06T01:12:05;5.20;99.90
16247;DHT22;8231;50.866;7.944;2024-03-06T01:14:34;5.10;99.90
16247;DHT22;8231;50.866;7.944;2024-03-06T01:17:06;5.10;99.90
16247;DHT22;8231;50.866;7.944;2024-03-06T01:19:34;5.10;99.90
16247;DHT22;8231;50.866;7.944;2024-03-06T01:22:04;5.10;99.90
16247;DHT22;8231;50.866;7.944;2024-03-06T01:24:33;5.10;99.90
16247;DHT22;8231;50.866;7.944;2024-03-06T01:27:01;5.10;99.90
16247;DHT22;8231;50.866;7.944;2024-03-06T01:29:29;5.10;99.90
16247;DHT22;8231;50.866;7.944;2024-03-06T01:31:58;5.10;99.90
16247;DHT22;8231;50.866;7.944;2024-03-06T01:34:26;5.10;99.90
16247;DHT22;8231;50.866;7.944;2024-03-06T01:36:55;5.10;99.90
16247;DHT22;8231;50.866;7.944;2024-03-06T01:39:24;5.10;99.90
16247;DHT22;8231;50.866;7.944;2024-03-06T01:41:52;5.10;99.90
16247;DHT22;8231;50.866;7.944;2024-03-06T01:44:20;5.10;99.90
16247;DHT22;8231;50.866;7.944;2024-03-06T01:46:48;5.10;99.90
16247;DHT22;8231;50.866;7.944;2024-03-06T01:49:17;5.10;99.90
16247;DHT22;8231;50.866;7.944;2024-03-06T01:51:59;5.20;99.90
16247;DHT22;8231;50.866;7.944;2024-03-06T01:54:30;5.10;99.90
16247;DHT22;8231;50.866;7.944;2024-03-06T01:56:59;5.60;99.90
16247;DHT22;8231;50.866;7.944;2024-03-06T01:59:30;5.10;99.90
16247;DHT22;8231;50.866;7.944;2024-03-06T02:02:03;5.10;99.90
16247;DHT22;8231;50.866;7.944;2024-03-06T02:04:34;5.10;99.90
16247;DHT22;8231;50.866;7.944;2024-03-06T02:07:03;5.20;99.90
16247;DHT22;8231;50.866;7.944;2024-03-06T02:09:33;5.20;99.90
16247;DHT22;8231;50.866;7.944;2024-03-06T02:12:01;5.10;99.90
16247;DHT22;8231;50.866;7.944;2024-03-06T02:14:30;6.00;99.90
16247;DHT22;8231;50.866;7.944;2024-03-06T02:16:58;5.20;99.90
16247;DHT22;8231;50.866;7.944;2024-03-06T02:19:37;5.20;99.90
16247;DHT22;8231;50.866;7.944;2024-03-06T02:22:07;5.20;99.90
16247;DHT22;8231;50.866;7.944;2024-03-06T02:24:35;5.20;99.90
16247;DHT22;8231;50.866;7.944;2024-03-06T02:27:04;5.20;99.90
16247;DHT22;8231;50.866;7.944;2024-03-06T02:29:33;5.20;99.90
16247;DHT22;8231;50.866;7.944;2024-03-06T02:32:01;5.20;99.90
16247;DHT22;8231;50.866;7.944;2024-03-06T02:34:30;5.20;99.90
16247;DHT22;8231;50.866;7.944;2024-03-06T02:36:59;5.20;99.90
16247;DHT22;8231;50.866;7.944;2024-03-06T02:39:28;5.20;99.90
16247;DHT22;8231;50.866;7.944;2024-03-06T02:41:56;5.20;99.90
16247;DHT22;8231;50.866;7.944;2024-03-06T02:44:25;5.30;99.90
16247;DHT22;8231;50.866;7.944;2024-03-06T02:46:54;5.20;99.90
16247;DHT22;8231;50.866;7.944;2024-03-06T02:49:22;5.30;99.90
16247;DHT22;8231;50.866;7.944;2024-03-06T02:51:50;5.30;99.90
16247;DHT22;8231;50.866;7.944;2024-03-06T02:54:18;5.30;99.90
16247;DHT22;8231;50.866;7.944;2024-03-06T02:56:48;5.30;99.90
16247;DHT22;8231;50.866;7.944;2024-03-06T02:59:18;5.30;99.90
16247;DHT22;8231;50.866;7.944;2024-03-06T03:01:47;5.30;99.90
16247;DHT22;8231;50.866;7.944;2024-03-06T03:04:15;5.30;99.90
16247;DHT22;8231;50.866;7.944;2024-03-06T03:06:44;5.20;99.90
16247;DHT22;8231;50.866;7.944;2024-03-06T03:09:12;5.10;99.90
16247;DHT22;8231;50.866;7.944;2024-03-06T03:11:42;5.10;99.90
16247;DHT22;8231;50.866;7.944;2024-03-06T03:14:13;5.10;99.90
16247;DHT22;8231;50.866;7.944;2024-03-06T03:16:41;5.20;99.90
16247;DHT22;8231;50.866;7.944;2024-03-06T03:19:10;5.20;99.90
16247;DHT22;8231;50.866;7.944;2024-03-06T03:21:38;5.20;99.90
16247;DHT22;8231;50.866;7.944;2024-03-06T03:24:07;5.20;99.90
16247;DHT22;8231;50.866;7.944;2024-03-06T03:26:35;5.20;99.90
16247;DHT22;8231;50.866;7.944;2024-03-06T03:29:04;5.20;99.90
16247;DHT22;8231;50.866;7.944;2024-03-06T03:31:34;5.10;99.90
16247;DHT22;8231;50.866;7.944;2024-03-06T03:34:05;5.10;99.90
16247;DHT22;8231;50.866;7.944;2024-03-06T03:36:33;5.10;99.90
16247;DHT22;8231;50.866;7.944;2024-03-06T03:39:01;5.10;99.90
16247;DHT22;8231;50.866;7.944;2024-03-06T03:41:30;5.10;99.90
16247;DHT22;8231;50.866;7.944;2024-03-06T03:43:58;5.10;99.90
16247;DHT22;8231;50.866;7.944;2024-03-06T03:46:27;5.10;99.90
16247;DHT22;8231;50.866;7.944;2024-03-06T03:48:57;5.10;99.90
16247;DHT22;8231;50.866;7.944;2024-03-06T03:51:25;5.10;99.90
16247;DHT22;8231;50.866;7.944;2024-03-06T03:53:53;5.10;99.90
16247;DHT22;8231;50.866;7.944;2024-03-06T03:56:21;5.00;99.90
16247;DHT22;8231;50.866;7.944;2024-03-06T03:58:49;5.00;99.90
16247;DHT22;8231;50.866;7.944;2024-03-06T04:01:18;5.00;99.90
16247;DHT22;8231;50.866;7.944;2024-03-06T04:03:46;5.00;99.90
16247;DHT22;8231;50.866;7.944;2024-03-06T04:06:16;5.00;99.90
16247;DHT22;8231;50.866;7.944;2024-03-06T04:08:45;5.00;99.90
16247;DHT22;8231;50.866;7.944;2024-03-06T04:11:14;5.00;99.90
16247;DHT22;8231;50.866;7.944;2024-03-06T04:13:43;5.10;99.90
16247;DHT22;8231;50.866;7.944;2024-03-06T04:16:16;5.10;99.90
16247;DHT22;8231;50.866;7.944;2024-03-06T04:18:46;5.10;99.90
16247;DHT22;8231;50.866;7.944;2024-03-06T04:21:15;5.10;99.90
16247;DHT22;8231;50.866;7.944;2024-03-06T04:23:44;5.10;99.90
16247;DHT22;8231;50.866;7.944;2024-03-06T04:26:12;5.00;99.90
16247;DHT22;8231;50.866;7.944;2024-03-06T04:28:41;5.00;99.90
16247;DHT22;8231;50.866;7.944;2024-03-06T04:31:09;4.90;99.90
16247;DHT22;8231;50.866;7.944;2024-03-06T04:33:37;4.90;99.90
16247;DHT22;8231;50.866;7.944;2024-03-06T04:36:06;4.80;99.90
16247;DHT22;8231;50.866;7.944;2024-03-06T04:38:37;4.90;99.90
16247;DHT22;8231;50.866;7.944;2024-03-06T04:41:05;4.90;99.90
16247;DHT22;8231;50.866;7.944;2024-03-06T04:43:33;4.80;99.90
16247;DHT22;8231;50.866;7.944;2024-03-06T04:46:01;4.90;99.90
16247;DHT22;8231;50.866;7.944;2024-03-06T04:48:30;4.90;99.90
16247;DHT22;8231;50.866;7.944;2024-03-06T04:50:58;4.90;99.90
16247;DHT22;8231;50.866;7.944;2024-03-06T04:53:26;4.90;99.90
16247;DHT22;8231;50.866;7.944;2024-03-06T04:55:56;4.90;99.90
16247;DHT22;8231;50.866;7.944;2024-03-06T04:58:24;4.90;99.90
16247;DHT22;8231;50.866;7.944;2024-03-06T05:00:53;4.90;99.90
16247;DHT22;8231;50.866;7.944;2024-03-06T05:03:21;4.90;99.90
16247;DHT22;8231;50.866;7.944;2024-03-06T05:06:07;4.90;99.90
16247;DHT22;8231;50.866;7.944;2024-03-06T05:08:52;4.90;99.90
16247;DHT22;8231;50.866;7.944;2024-03-06T05:11:40;4.90;99.90
16247;DHT22;8231;50.866;7.944;2024-03-06T05:14:26;4.90;99.90
16247;DHT22;8231;50.866;7.944;2024-03-06T05:17:11;4.90;99.90
16247;DHT22;8231;50.866;7.944;2024-03-06T05:19:57;4.90;99.90
16247;DHT22;8231;50.866;7.944;2024-03-06T05:22:43;4.90;99.90
16247;DHT22;8231;50.866;7.944;2024-03-06T05:25:28;4.90;99.90
16247;DHT22;8231;50.866;7.944;2024-03-06T05:28:15;4.90;99.90
16247;DHT22;8231;50.866;7.944;2024-03-06T05:31:01;5.00;99.90
16247;DHT22;8231;50.866;7.944;2024-03-06T05:34:00;5.00;99.90
16247;DHT22;8231;50.866;7.944;2024-03-06T05:36:46;4.90;99.90
16247;DHT22;8231;50.866;7.944;2024-03-06T05:39:33;4.90;99.90
16247;DHT22;8231;50.866;7.944;2024-03-06T05:42:19;5.10;99.90
16247;DHT22;8231;50.866;7.944;2024-03-06T05:45:07;4.80;99.90
16247;DHT22;8231;50.866;7.944;2024-03-06T05:47:55;4.80;99.90
16247;DHT22;8231;50.866;7.944;2024-03-06T05:50:40;4.80;99.90
16247;DHT22;8231;50.866;7.944;2024-03-06T05:53:26;4.70;99.90
16247;DHT22;8231;50.866;7.944;2024-03-06T05:56:12;4.60;99.90
16247;DHT22;8231;50.866;7.944;2024-03-06T05:58:58;4.60;99.90
16247;DHT22;8231;50.866;7.944;2024-03-06T06:01:30;4.60;99.90
16247;DHT22;8231;50.866;7.944;2024-03-06T06:03:59;4.60;99.90
16247;DHT22;8231;50.866;7.944;2024-03-06T06:06:31;4.70;99.90
16247;DHT22;8231;50.866;7.944;2024-03-06T06:09:00;4.70;99.90
16247;DHT22;8231;50.866;7.944;2024-03-06T06:11:30;4.70;99.90
16247;DHT22;8231;50.866;7.944;2024-03-06T06:13:59;4.70;99.90
16247;DHT22;8231;50.866;7.944;2024-03-06T06:16:36;4.70;99.90
16247;DHT22;8231;50.866;7.944;2024-03-06T06:19:04;4.70;99.90
16247;DHT22;8231;50.866;7.944;2024-03-06T06:21:33;4.70;99.90
16247;DHT22;8231;50.866;7.944;2024-03-06T06:24:03;4.70;99.90
16247;DHT22;8231;50.866;7.944;2024-03-06T06:26:32;4.60;99.90
16247;DHT22;8231;50.866;7.944;2024-03-06T06:29:00;4.60;99.90
16247;DHT22;8231;50.866;7.944;2024-03-06T06:31:29;4.60;99.90
16247;DHT22;8231;50.866;7.944;2024-03-06T06:33:59;4.70;99.90
16247;DHT22;8231;50.866;7.944;2024-03-06T06:36:27;4.70;99.90
16247;DHT22;8231;50.866;7.944;2024-03-06T06:38:56;4.70;99.90
16247;DHT22;8231;50.866;7.944;2024-03-06T06:41:27;4.70;99.90
16247;DHT22;8231;50.866;7.944;2024-03-06T06:43:56;4.70;99.90
16247;DHT22;8231;50.866;7.944;2024-03-06T06:46:24;5.00;99.90
16247;DHT22;8231;50.866;7.944;2024-03-06T06:48:52;4.80;99.90
16247;DHT22;8231;50.866;7.944;2024-03-06T06:51:22;4.70;99.90
16247;DHT22;8231;50.866;7.944;2024-03-06T06:53:51;5.50;99.90
16247;DHT22;8231;50.866;7.944;2024-03-06T06:56:23;4.70;99.90
16247;DHT22;8231;50.866;7.944;2024-03-06T06:58:52;4.70;99.90
16247;DHT22;8231;50.866;7.944;2024-03-06T07:01:20;4.70;99.90
16247;DHT22;8231;50.866;7.944;2024-03-06T07:03:48;4.70;99.90
16247;DHT22;8231;50.866;7.944;2024-03-06T07:06:17;4.50;99.90
16247;DHT22;8231;50.866;7.944;2024-03-06T07:08:46;4.80;99.90
16247;DHT22;8231;50.866;7.944;2024-03-06T07:11:16;4.90;99.90
16247;DHT22;8231;50.866;7.944;2024-03-06T07:13:45;4.90;99.90
16247;DHT22;8231;50.866;7.944;2024-03-06T07:16:13;5.00;99.90
16247;DHT22;8231;50.866;7.944;2024-03-06T07:18:42;5.00;99.90
16247;DHT22;8231;50.866;7.944;2024-03-06T07:21:10;5.10;99.90
16247;DHT22;8231;50.866;7.944;2024-03-06T07:23:38;5.10;99.90
16247;DHT22;8231;50.866;7.944;2024-03-06T07:26:08;5.10;99.90
16247;DHT22;8231;50.866;7.944;2024-03-06T07:28:37;5.20;99.90
16247;DHT22;8231;50.866;7.944;2024-03-06T07:31:05;5.20;99.90
16247;DHT22;8231;50.866;7.944;2024-03-06T07:33:33;5.30;99.90
16247;DHT22;8231;50.866;7.944;2024-03-06T07:36:05;5.30;99.90
16247;DHT22;8231;50.866;7.944;2024-03-06T07:38:33;5.30;99.90
16247;DHT22;8231;50.866;7.944;2024-03-06T07:41:02;5.40;99.90
16247;DHT22;8231;50.866;7.944;2024-03-06T07:43:32;5.50;99.90
16247;DHT22;8231;50.866;7.944;2024-03-06T07:46:00;5.50;99.90
16247;DHT22;8231;50.866;7.944;2024-03-06T07:48:28;5.50;99.90
16247;DHT22;8231;50.866;7.944;2024-03-06T07:50:56;5.50;99.90
16247;DHT22;8231;50.866;7.944;2024-03-06T07:53:24;5.50;99.90
16247;DHT22;8231;50.866;7.944;2024-03-06T07:55:53;6.20;99.90
16247;DHT22;8231;50.866;7.944;2024-03-06T07:58:21;5.70;99.90
16247;DHT22;8231;50.866;7.944;2024-03-06T08:00:52;5.70;99.90
16247;DHT22;8231;50.866;7.944;2024-03-06T08:03:24;5.80;99.90
16247;DHT22;8231;50.866;7.944;2024-03-06T08:05:58;5.90;99.90
16247;DHT22;8231;50.866;7.944;2024-03-06T08:09:09;6.00;99.90
16247;DHT22;8231;50.866;7.944;2024-03-06T08:11:47;6.00;99.90
16247;DHT22;8231;50.866;7.944;2024-03-06T08:14:21;6.10;99.90
16247;DHT22;8231;50.866;7.944;2024-03-06T08:16:52;6.20;99.90
16247;DHT22;8231;50.866;7.944;2024-03-06T08:19:22;6.20;99.90
16247;DHT22;8231;50.866;7.944;2024-03-06T08:21:51;6.20;99.90
16247;DHT22;8231;50.866;7.944;2024-03-06T08:24:20;6.20;99.90
16247;DHT22;8231;50.866;7.944;2024-03-06T08:26:48;6.10;99.90
16247;DHT22;8231;50.866;7.944;2024-03-06T08:29:16;6.40;99.90
16247;DHT22;8231;50.866;7.944;2024-03-06T08:31:44;6.20;99.90
16247;DHT22;8231;50.866;7.944;2024-03-06T08:34:14;6.10;99.90
16247;DHT22;8231;50.866;7.944;2024-03-06T08:36:43;6.10;99.90
16247;DHT22;8231;50.866;7.944;2024-03-06T08:39:12;6.00;99.90
16247;DHT22;8231;50.866;7.944;2024-03-06T08:41:43;6.00;99.90
16247;DHT22;8231;50.866;7.944;2024-03-06T08:44:11;6.00;99.90
16247;DHT22;8231;50.866;7.944;2024-03-06T08:46:39;6.00;99.90
16247;DHT22;8231;50.866;7.944;2024-03-06T08:49:08;6.00;99.90
16247;DHT22;8231;50.866;7.944;2024-03-06T08:51:39;6.10;99.90
16247;DHT22;8231;50.866;7.944;2024-03-06T08:54:07;6.20;99.90
16247;DHT22;8231;50.866;7.944;2024-03-06T08:56:43;6.30;99.90
16247;DHT22;8231;50.866;7.944;2024-03-06T08:59:12;6.40;99.90
16247;DHT22;8231;50.866;7.944;2024-03-06T09:01:40;6.50;99.90
16247;DHT22;8231;50.866;7.944;2024-03-06T09:04:08;6.60;99.90
16247;DHT22;8231;50.866;7.944;2024-03-06T09:06:38;6.70;99.90
16247;DHT22;8231;50.866;7.944;2024-03-06T09:09:06;6.80;99.90
16247;DHT22;8231;50.866;7.944;2024-03-06T09:11:34;7.00;99.90
16247;DHT22;8231;50.866;7.944;2024-03-06T09:14:02;7.20;99.90
16247;DHT22;8231;50.866;7.944;2024-03-06T09:16:31;7.20;99.90
16247;DHT22;8231;50.866;7.944;2024-03-06T09:19:00;7.20;99.90
16247;DHT22;8231;50.866;7.944;2024-03-06T09:21:28;7.20;99.90
16247;DHT22;8231;50.866;7.944;2024-03-06T09:23:58;7.10;99.90
16247;DHT22;8231;50.866;7.944;2024-03-06T09:26:26;7.30;99.90
16247;DHT22;8231;50.866;7.944;2024-03-06T09:28:54;7.50;99.90
16247;DHT22;8231;50.866;7.944;2024-03-06T09:31:23;7.50;99.90
16247;DHT22;8231;50.866;7.944;2024-03-06T09:33:51;7.60;99.90
16247;DHT22;8231;50.866;7.944;2024-03-06T09:36:20;7.70;99.90
16247;DHT22;8231;50.866;7.944;2024-03-06T09:38:48;7.80;99.90
16247;DHT22;8231;50.866;7.944;2024-03-06T09:41:18;8.00;99.90
16247;DHT22;8231;50.866;7.944;2024-03-06T09:43:46;8.10;99.90
16247;DHT22;8231;50.866;7.944;2024-03-06T09:46:14;8.10;99.90
16247;DHT22;8231;50.866;7.944;2024-03-06T09:48:46;8.30;99.90
16247;DHT22;8231;50.866;7.944;2024-03-06T09:51:14;8.50;99.90
16247;DHT22;8231;50.866;7.944;2024-03-06T09:53:42;8.60;99.90
16247;DHT22;8231;50.866;7.944;2024-03-06T09:56:11;8.90;99.90
16247;DHT22;8231;50.866;7.944;2024-03-06T09:58:41;9.10;99.90
16247;DHT22;8231;50.866;7.944;2024-03-06T10:01:10;9.20;99.90
16247;DHT22;8231;50.866;7.944;2024-03-06T10:03:40;9.50;99.90
16247;DHT22;8231;50.866;7.944;2024-03-06T10:06:08;9.70;99.90
16247;DHT22;8231;50.866;7.944;2024-03-06T10:08:42;9.80;99.90
16247;DHT22;8231;50.866;7.944;2024-03-06T10:11:12;10.10;99.90
16247;DHT22;8231;50.866;7.944;2024-03-06T10:13:42;10.00;99.90
16247;DHT22;8231;50.866;7.944;2024-03-06T10:16:11;10.00;99.90
16247;DHT22;8231;50.866;7.944;2024-03-06T10:18:41;10.00;99.90
16247;DHT22;8231;50.866;7.944;2024-03-06T10:21:09;10.00;99.90
16247;DHT22;8231;50.866;7.944;2024-03-06T10:23:37;10.20;99.90
16247;DHT22;8231;50.866;7.944;2024-03-06T10:26:07;10.40;99.90
16247;DHT22;8231;50.866;7.944;2024-03-06T10:28:36;10.50;99.90
16247;DHT22;8231;50.866;7.944;2024-03-06T10:31:07;10.50;99.90
16247;DHT22;8231;50.866;7.944;2024-03-06T10:33:36;10.70;99.90
16247;DHT22;8231;50.866;7.944;2024-03-06T10:36:05;10.80;99.90
16247;DHT22;8231;50.866;7.944;2024-03-06T10:38:36;10.90;99.90
16247;DHT22;8231;50.866;7.944;2024-03-06T10:41:09;11.10;99.90
16247;DHT22;8231;50.866;7.944;2024-03-06T10:43:43;11.30;99.90
16247;DHT22;8231;50.866;7.944;2024-03-06T10:46:14;11.50;99.90
16247;DHT22;8231;50.866;7.944;2024-03-06T10:48:44;11.70;99.90
16247;DHT22;8231;50.866;7.944;2024-03-06T10:51:13;11.60;99.90
16247;DHT22;8231;50.866;7.944;2024-03-06T10:53:43;11.70;99.90
16247;DHT22;8231;50.866;7.944;2024-03-06T10:56:13;11.70;99.90
16247;DHT22;8231;50.866;7.944;2024-03-06T10:58:41;11.80;99.90
16247;DHT22;8231;50.866;7.944;2024-03-06T11:01:10;11.90;99.90
16247;DHT22;8231;50.866;7.944;2024-03-06T11:03:41;12.00;99.90
16247;DHT22;8231;50.866;7.944;2024-03-06T11:06:09;12.00;99.90
16247;DHT22;8231;50.866;7.944;2024-03-06T11:08:37;12.20;99.90
16247;DHT22;8231;50.866;7.944;2024-03-06T11:11:22;12.60;99.90
16247;DHT22;8231;50.866;7.944;2024-03-06T11:13:54;12.90;99.90
16247;DHT22;8231;50.866;7.944;2024-03-06T11:16:28;12.70;99.90
16247;DHT22;8231;50.866;7.944;2024-03-06T11:19:08;12.80;99.90
16247;DHT22;8231;50.866;7.944;2024-03-06T11:21:46;12.50;99.90
16247;DHT22;8231;50.866;7.944;2024-03-06T11:24:17;12.60;99.90
16247;DHT22;8231;50.866;7.944;2024-03-06T11:26:54;12.70;99.90
16247;DHT22;8231;50.866;7.944;2024-03-06T11:29:26;12.80;99.90
16247;DHT22;8231;50.866;7.944;2024-03-06T11:32:03;12.50;99.90
16247;DHT22;8231;50.866;7.944;2024-03-06T11:34:36;12.40;99.90
16247;DHT22;8231;50.866;7.944;2024-03-06T11:37:06;12.40;99.90
16247;DHT22;8231;50.866;7.944;2024-03-06T11:39:37;12.60;99.90
16247;DHT22;8231;50.866;7.944;2024-03-06T11:42:06;12.70;99.90
16247;DHT22;8231;50.866;7.944;2024-03-06T11:44:36;13.00;99.90
16247;DHT22;8231;50.866;7.944;2024-03-06T11:47:07;13.60;99.90
16247;DHT22;8231;50.866;7.944;2024-03-06T11:49:37;13.90;99.90
16247;DHT22;8231;50.866;7.944;2024-03-06T11:52:07;14.30;99.90
16247;DHT22;8231;50.866;7.944;2024-03-06T11:54:37;14.80;99.90
16247;DHT22;8231;50.866;7.944;2024-03-06T11:57:05;14.80;99.90
16247;DHT22;8231;50.866;7.944;2024-03-06T11:59:35;15.10;99.90
16247;DHT22;8231;50.866;7.944;2024-03-06T12:02:06;15.30;99.90
16247;DHT22;8231;50.866;7.944;2024-03-06T12:04:36;15.70;99.90
16247;DHT22;8231;50.866;7.944;2024-03-06T12:07:06;16.20;99.90
16247;DHT22;8231;50.866;7.944;2024-03-06T12:09:37;16.20;99.90
16247;DHT22;8231;50.866;7.944;2024-03-06T12:12:10;16.30;99.90
16247;DHT22;8231;50.866;7.944;2024-03-06T12:14:40;16.50;99.90
16247;DHT22;8231;50.866;7.944;2024-03-06T12:17:12;17.00;99.90
16247;DHT22;8231;50.866;7.944;2024-03-06T12:19:44;17.70;99.90
16247;DHT22;8231;50.866;7.944;2024-03-06T12:22:13;18.40;98.40
16247;DHT22;8231;50.866;7.944;2024-03-06T12:24:42;18.90;98.10
16247;DHT22;8231;50.866;7.944;2024-03-06T12:27:10;19.40;95.10
16247;DHT22;8231;50.866;7.944;2024-03-06T12:29:40;19.80;92.60
16247;DHT22;8231;50.866;7.944;2024-03-06T12:32:16;19.70;93.40
16247;DHT22;8231;50.866;7.944;2024-03-06T12:34:57;20.20;91.40
16247;DHT22;8231;50.866;7.944;2024-03-06T12:37:31;19.90;91.10
16247;DHT22;8231;50.866;7.944;2024-03-06T12:39:59;19.40;91.00
16247;DHT22;8231;50.866;7.944;2024-03-06T12:42:28;18.90;91.80
16247;DHT22;8231;50.866;7.944;2024-03-06T12:44:56;18.70;91.90
16247;DHT22;8231;50.866;7.944;2024-03-06T12:47:25;18.10;92.10
16247;DHT22;8231;50.866;7.944;2024-03-06T12:49:53;17.70;92.90
16247;DHT22;8231;50.866;7.944;2024-03-06T12:52:22;17.20;93.50
16247;DHT22;8231;50.866;7.944;2024-03-06T12:54:51;16.90;94.20
16247;DHT22;8231;50.866;7.944;2024-03-06T12:57:19;16.80;94.20
16247;DHT22;8231;50.866;7.944;2024-03-06T12:59:47;15.70;94.40
16247;DHT22;8231;50.866;7.944;2024-03-06T13:02:16;15.50;94.80
16247;DHT22;8231;50.866;7.944;2024-03-06T13:04:44;14.90;95.10
16247;DHT22;8231;50.866;7.944;2024-03-06T13:07:14;14.60;95.40
16247;DHT22;8231;50.866;7.944;2024-03-06T13:09:43;14.50;96.20
16247;DHT22;8231;50.866;7.944;2024-03-06T13:12:11;14.30;95.70
16247;DHT22;8231;50.866;7.944;2024-03-06T13:14:40;14.00;95.30
16247;DHT22;8231;50.866;7.944;2024-03-06T13:17:08;13.90;96.50
16247;DHT22;8231;50.866;7.944;2024-03-06T13:19:36;13.90;96.10
16247;DHT22;8231;50.866;7.944;2024-03-06T13:22:04;13.80;96.70
16247;DHT22;8231;50.866;7.944;2024-03-06T13:24:34;13.80;96.40
16247;DHT22;8231;50.866;7.944;2024-03-06T13:27:09;13.80;96.90
16247;DHT22;8231;50.866;7.944;2024-03-06T13:29:37;13.60;96.60
16247;DHT22;8231;50.866;7.944;2024-03-06T13:32:07;13.60;96.90
16247;DHT22;8231;50.866;7.944;2024-03-06T13:34:35;13.50;96.70
16247;DHT22;8231;50.866;7.944;2024-03-06T13:37:03;13.60;96.60
16247;DHT22;8231;50.866;7.944;2024-03-06T13:39:34;13.40;97.10
16247;DHT22;8231;50.866;7.944;2024-03-06T13:42:02;13.50;96.90
16247;DHT22;8231;50.866;7.944;2024-03-06T13:44:32;13.40;97.00
16247;DHT22;8231;50.866;7.944;2024-03-06T13:47:00;13.40;97.00
16247;DHT22;8231;50.866;7.944;2024-03-06T13:49:37;13.10;97.30
16247;DHT22;8231;50.866;7.944;2024-03-06T13:52:07;13.10;98.30
16247;DHT22;8231;50.866;7.944;2024-03-06T13:54:38;13.10;98.00
16247;DHT22;8231;50.866;7.944;2024-03-06T13:57:06;13.10;97.70
16247;DHT22;8231;50.866;7.944;2024-03-06T13:59:36;13.00;97.60
16247;DHT22;8231;50.866;7.944;2024-03-06T14:02:06;12.80;98.90
16247;DHT22;8231;50.866;7.944;2024-03-06T14:04:35;12.80;99.50
16247;DHT22;8231;50.866;7.944;2024-03-06T14:07:03;12.60;99.90
16247;DHT22;8231;50.866;7.944;2024-03-06T14:09:32;12.60;99.90
16247;DHT22;8231;50.866;7.944;2024-03-06T14:12:00;12.50;99.90
16247;DHT22;8231;50.866;7.944;2024-03-06T14:14:29;12.60;99.90
16247;DHT22;8231;50.866;7.944;2024-03-06T14:16:58;12.40;99.90
16247;DHT22;8231;50.866;7.944;2024-03-06T14:19:26;12.30;99.90
16247;DHT22;8231;50.866;7.944;2024-03-06T14:21:54;12.30;99.90
16247;DHT22;8231;50.866;7.944;2024-03-06T14:24:26;12.40;99.80
16247;DHT22;8231;50.866;7.944;2024-03-06T14:26:54;12.40;99.90
16247;DHT22;8231;50.866;7.944;2024-03-06T14:29:23;12.50;99.90
16247;DHT22;8231;50.866;7.944;2024-03-06T14:31:53;12.60;99.80
16247;DHT22;8231;50.866;7.944;2024-03-06T14:34:22;12.50;99.90
16247;DHT22;8231;50.866;7.944;2024-03-06T14:36:50;12.70;99.50
16247;DHT22;8231;50.866;7.944;2024-03-06T14:39:19;12.70;99.70
16247;DHT22;8231;50.866;7.944;2024-03-06T14:41:48;12.70;99.40
16247;DHT22;8231;50.866;7.944;2024-03-06T14:44:17;12.70;99.20
16247;DHT22;8231;50.866;7.944;2024-03-06T14:46:46;12.70;99.40
16247;DHT22;8231;50.866;7.944;2024-03-06T14:49:14;12.60;99.00
16247;DHT22;8231;50.866;7.944;2024-03-06T14:51:45;12.60;99.60
16247;DHT22;8231;50.866;7.944;2024-03-06T14:54:13;12.50;98.40
16247;DHT22;8231;50.866;7.944;2024-03-06T14:56:42;12.50;98.00
16247;DHT22;8231;50.866;7.944;2024-03-06T14:59:11;12.50;97.40
16247;DHT22;8231;50.866;7.944;2024-03-06T15:01:39;12.30;98.00
16247;DHT22;8231;50.866;7.944;2024-03-06T15:04:07;12.40;98.80
16247;DHT22;8231;50.866;7.944;2024-03-06T15:06:36;12.60;98.40
16247;DHT22;8231;50.866;7.944;2024-03-06T15:09:06;12.40;99.00
16247;DHT22;8231;50.866;7.944;2024-03-06T15:11:38;12.50;98.20
16247;DHT22;8231;50.866;7.944;2024-03-06T15:14:07;12.50;99.00
16247;DHT22;8231;50.866;7.944;2024-03-06T15:16:37;12.30;98.10
16247;DHT22;8231;50.866;7.944;2024-03-06T15:19:05;12.30;98.60
16247;DHT22;8231;50.866;7.944;2024-03-06T15:21:33;12.40;98.90
16247;DHT22;8231;50.866;7.944;2024-03-06T15:24:02;12.30;98.80
16247;DHT22;8231;50.866;7.944;2024-03-06T15:26:33;12.30;99.50
16247;DHT22;8231;50.866;7.944;2024-03-06T15:29:02;12.30;99.80
16247;DHT22;8231;50.866;7.944;2024-03-06T15:31:32;12.30;99.90
16247;DHT22;8231;50.866;7.944;2024-03-06T15:34:00;12.20;99.90
16247;DHT22;8231;50.866;7.944;2024-03-06T15:36:28;12.20;99.90
16247;DHT22;8231;50.866;7.944;2024-03-06T15:38:56;12.00;99.90
16247;DHT22;8231;50.866;7.944;2024-03-06T15:41:25;12.00;99.90
16247;DHT22;8231;50.866;7.944;2024-03-06T15:43:54;12.10;99.90
16247;DHT22;8231;50.866;7.944;2024-03-06T15:46:23;12.00;99.90
16247;DHT22;8231;50.866;7.944;2024-03-06T15:48:53;12.00;99.90
16247;DHT22;8231;50.866;7.944;2024-03-06T15:51:21;12.00;99.90
16247;DHT22;8231;50.866;7.944;2024-03-06T15:53:49;12.00;99.90
16247;DHT22;8231;50.866;7.944;2024-03-06T15:56:19;12.00;99.90
16247;DHT22;8231;50.866;7.944;2024-03-06T15:58:48;11.90;99.90
16247;DHT22;8231;50.866;7.944;2024-03-06T16:01:18;11.80;99.90
16247;DHT22;8231;50.866;7.944;2024-03-06T16:03:47;12.10;99.90
16247;DHT22;8231;50.866;7.944;2024-03-06T16:06:19;12.00;99.90
16247;DHT22;8231;50.866;7.944;2024-03-06T16:08:56;11.90;99.90
16247;DHT22;8231;50.866;7.944;2024-03-06T16:11:24;12.00;99.90
16247;DHT22;8231;50.866;7.944;2024-03-06T16:13:55;11.90;99.90